sensor_id;sensor_type;location;lat;lon;timestamp;pressure;altitude;pressure_sealevel;temperature;humidity
13367;BME280;6752;52.612;13.630;2023-06-14T00:02:27;101120.52;;;11.43;100.00
13367;BME280;6752;52.612;13.630;2023-06-14T00:07:36;101120.53;;;11.40;100.00
13367;BME280;6752;52.612;13.630;2023-06-14T00:12:37;101115.20;;;11.36;100.00
13367;BME280;6752;52.612;13.630;2023-06-14T00:17:40;101116.14;;;11.29;100.00
13367;BME280;6752;52.612;13.630;2023-06-14T00:22:42;101127.77;;;11.33;100.00
13367;BME280;6752;52.612;13.630;2023-06-14T00:27:44;101129.87;;;11.35;98.93
13367;BME280;6752;52.612;13.630;2023-06-14T00:32:47;101130.81;;;11.34;96.14
13367;BME280;6752;52.612;13.630;2023-06-14T00:37:49;101125.48;;;11.30;96.50
13367;BME280;6752;52.612;13.630;2023-06-14T00:42:52;101130.64;;;11.26;95.05
13367;BME280;6752;52.612;13.630;2023-06-14T00:47:54;101125.49;;;11.27;94.34
13367;BME280;6752;52.612;13.630;2023-06-14T00:52:56;101127.63;;;11.18;92.68
13367;BME280;6752;52.612;13.630;2023-06-14T00:58:01;101121.23;;;11.15;91.73
13367;BME280;6752;52.612;13.630;2023-06-14T01:03:03;101129.44;;;11.02;94.35
13367;BME280;6752;52.612;13.630;2023-06-14T01:08:11;101135.32;;;10.99;93.23
13367;BME280;6752;52.612;13.630;2023-06-14T01:13:12;101133.90;;;10.67;94.30
13367;BME280;6752;52.612;13.630;2023-06-14T01:18:13;101134.09;;;10.55;96.76
13367;BME280;6752;52.612;13.630;2023-06-14T01:23:22;101130.75;;;10.47;98.45
13367;BME280;6752;52.612;13.630;2023-06-14T01:28:24;101143.22;;;10.52;97.02
13367;BME280;6752;52.612;13.630;2023-06-14T01:33:26;101141.09;;;10.37;100.00
13367;BME280;6752;52.612;13.630;2023-06-14T01:38:29;101137.11;;;10.40;100.00
13367;BME280;6752;52.612;13.630;2023-06-14T01:43:31;101135.55;;;10.22;100.00
13367;BME280;6752;52.612;13.630;2023-06-14T01:48:34;101135.27;;;10.07;100.00
13367;BME280;6752;52.612;13.630;2023-06-14T01:53:36;101126.46;;;9.98;100.00
13367;BME280;6752;52.612;13.630;2023-06-14T01:58:38;101127.92;;;9.97;100.00
13367;BME280;6752;52.612;13.630;2023-06-14T02:03:41;101118.19;;;10.05;100.00
13367;BME280;6752;52.612;13.630;2023-06-14T02:08:43;101124.73;;;9.87;100.00
13367;BME280;6752;52.612;13.630;2023-06-14T02:13:45;101131.06;;;9.94;100.00
13367;BME280;6752;52.612;13.630;2023-06-14T02:18:48;101122.17;;;10.03;100.00
13367;BME280;6752;52.612;13.630;2023-06-14T02:23:50;101127.30;;;9.98;100.00
13367;BME280;6752;52.612;13.630;2023-06-14T02:28:52;101126.25;;;9.96;100.00
13367;BME280;6752;52.612;13.630;2023-06-14T02:33:55;101125.16;;;9.87;100.00
13367;BME280;6752;52.612;13.630;2023-06-14T02:38:57;101131.48;;;9.94;100.00
13367;BME280;6752;52.612;13.630;2023-06-14T02:44:00;101132.84;;;9.98;100.00
13367;BME280;6752;52.612;13.630;2023-06-14T02:49:02;101126.62;;;9.90;100.00
13367;BME280;6752;52.612;13.630;2023-06-14T02:54:04;101122.02;;;9.90;100.00
13367;BME280;6752;52.612;13.630;2023-06-14T02:59:07;101119.50;;;9.85;100.00
13367;BME280;6752;52.612;13.630;2023-06-14T03:04:09;101124.73;;;9.84;100.00
13367;BME280;6752;52.612;13.630;2023-06-14T03:09:12;101126.93;;;9.84;100.00
13367;BME280;6752;52.612;13.630;2023-06-14T03:14:14;101124.73;;;9.87;100.00
13367;BME280;6752;52.612;13.630;2023-06-14T03:19:16;101126.14;;;9.97;100.00
13367;BME280;6752;52.612;13.630;2023-06-14T03:24:19;101130.97;;;10.11;100.00
13367;BME280;6752;52.612;13.630;2023-06-14T03:29:21;101132.34;;;10.15;100.00
13367;BME280;6752;52.612;13.630;2023-06-14T03:34:24;101130.20;;;10.27;100.00
13367;BME280;6752;52.612;13.630;2023-06-14T03:39:26;101129.38;;;10.47;100.00
13367;BME280;6752;52.612;13.630;2023-06-14T03:44:31;101137.12;;;10.63;100.00
13367;BME280;6752;52.612;13.630;2023-06-14T03:49:33;101136.17;;;10.96;100.00
13367;BME280;6752;52.612;13.630;2023-06-14T03:54:36;101138.94;;;11.25;100.00
13367;BME280;6752;52.612;13.630;2023-06-14T03:59:38;101138.97;;;11.48;100.00
13367;BME280;6752;52.612;13.630;2023-06-14T04:04:40;101151.93;;;11.65;100.00
13367;BME280;6752;52.612;13.630;2023-06-14T04:09:43;101159.94;;;11.89;100.00
13367;BME280;6752;52.612;13.630;2023-06-14T04:14:45;101158.36;;;12.10;100.00
13367;BME280;6752;52.612;13.630;2023-06-14T04:19:48;101154.63;;;12.36;100.00
13367;BME280;6752;52.612;13.630;2023-06-14T04:24:50;101153.08;;;12.59;100.00
13367;BME280;6752;52.612;13.630;2023-06-14T04:29:53;101151.57;;;12.97;100.00
13367;BME280;6752;52.612;13.630;2023-06-14T04:34:55;101165.44;;;13.24;100.00
13367;BME280;6752;52.612;13.630;2023-06-14T04:39:57;101166.50;;;13.54;100.00
13367;BME280;6752;52.612;13.630;2023-06-14T04:44:59;101165.23;;;13.80;100.00
13367;BME280;6752;52.612;13.630;2023-06-14T04:50:02;101168.55;;;13.76;100.00
13367;BME280;6752;52.612;13.630;2023-06-14T04:55:04;101159.55;;;14.03;100.00
13367;BME280;6752;52.612;13.630;2023-06-14T05:00:07;101170.94;;;13.94;100.00
13367;BME280;6752;52.612;13.630;2023-06-14T05:05:09;101168.30;;;13.96;100.00
13367;BME280;6752;52.612;13.630;2023-06-14T05:10:12;101161.14;;;14.16;100.00
13367;BME280;6752;52.612;13.630;2023-06-14T05:15:14;101166.27;;;14.33;100.00
13367;BME280;6752;52.612;13.630;2023-06-14T05:20:16;101170.30;;;14.55;100.00
13367;BME280;6752;52.612;13.630;2023-06-14T05:25:19;101182.66;;;14.67;100.00
13367;BME280;6752;52.612;13.630;2023-06-14T05:30:21;101181.09;;;14.86;100.00
13367;BME280;6752;52.612;13.630;2023-06-14T05:35:24;101186.48;;;14.92;100.00
13367;BME280;6752;52.612;13.630;2023-06-14T05:40:26;101199.55;;;15.00;100.00
13367;BME280;6752;52.612;13.630;2023-06-14T05:45:28;101190.17;;;15.10;100.00
13367;BME280;6752;52.612;13.630;2023-06-14T05:50:31;101197.34;;;15.28;100.00
13367;BME280;6752;52.612;13.630;2023-06-14T05:55:33;101196.81;;;15.40;100.00
13367;BME280;6752;52.612;13.630;2023-06-14T06:00:36;101197.70;;;15.32;100.00
13367;BME280;6752;52.612;13.630;2023-06-14T06:05:38;101204.34;;;15.39;100.00
13367;BME280;6752;52.612;13.630;2023-06-14T06:10:40;101206.13;;;15.45;100.00
13367;BME280;6752;52.612;13.630;2023-06-14T06:15:43;101207.43;;;15.60;100.00
13367;BME280;6752;52.612;13.630;2023-06-14T06:20:45;101203.00;;;15.53;100.00
13367;BME280;6752;52.612;13.630;2023-06-14T06:25:48;101196.86;;;15.49;100.00
13367;BME280;6752;52.612;13.630;2023-06-14T06:30:50;101198.22;;;15.72;100.00
13367;BME280;6752;52.612;13.630;2023-06-14T06:35:52;101200.13;;;15.98;100.00
13367;BME280;6752;52.612;13.630;2023-06-14T06:40:55;101197.52;;;16.05;100.00
13367;BME280;6752;52.612;13.630;2023-06-14T06:45:57;101191.77;;;16.49;100.00
13367;BME280;6752;52.612;13.630;2023-06-14T06:50:59;101203.52;;;16.45;99.54
13367;BME280;6752;52.612;13.630;2023-06-14T06:56:02;101206.06;;;16.63;96.73
13367;BME280;6752;52.612;13.630;2023-06-14T07:01:04;101216.77;;;16.76;97.35
13367;BME280;6752;52.612;13.630;2023-06-14T07:06:07;101223.28;;;16.79;94.13
13367;BME280;6752;52.612;13.630;2023-06-14T07:11:09;101228.76;;;17.01;92.26
13367;BME280;6752;52.612;13.630;2023-06-14T07:16:11;101226.69;;;17.44;90.65
13367;BME280;6752;52.612;13.630;2023-06-14T07:21:14;101233.42;;;17.51;88.63
13367;BME280;6752;52.612;13.630;2023-06-14T07:26:16;101237.17;;;17.92;87.90
13367;BME280;6752;52.612;13.630;2023-06-14T07:31:19;101232.26;;;18.81;84.47
13367;BME280;6752;52.612;13.630;2023-06-14T07:36:21;101248.70;;;19.32;80.20
13367;BME280;6752;52.612;13.630;2023-06-14T07:41:23;101248.72;;;19.53;77.10
13367;BME280;6752;52.612;13.630;2023-06-14T07:46:26;101240.19;;;19.55;78.61
13367;BME280;6752;52.612;13.630;2023-06-14T07:51:28;101241.20;;;20.14;77.28
13367;BME280;6752;52.612;13.630;2023-06-14T07:56:30;101234.27;;;20.51;73.01
13367;BME280;6752;52.612;13.630;2023-06-14T08:01:33;101227.66;;;21.23;70.21
13367;BME280;6752;52.612;13.630;2023-06-14T08:06:35;101233.07;;;22.07;69.39
13367;BME280;6752;52.612;13.630;2023-06-14T08:11:38;101228.41;;;21.84;65.13
13367;BME280;6752;52.612;13.630;2023-06-14T08:16:40;101226.97;;;21.47;67.61
13367;BME280;6752;52.612;13.630;2023-06-14T08:21:42;101234.25;;;21.73;64.66
13367;BME280;6752;52.612;13.630;2023-06-14T08:26:45;101231.00;;;21.93;64.64
13367;BME280;6752;52.612;13.630;2023-06-14T08:31:47;101224.50;;;21.36;64.12
13367;BME280;6752;52.612;13.630;2023-06-14T08:36:53;101224.49;;;21.28;66.55
13367;BME280;6752;52.612;13.630;2023-06-14T08:41:55;101221.47;;;21.32;66.71
13367;BME280;6752;52.612;13.630;2023-06-14T08:46:56;101216.86;;;21.89;64.14
13367;BME280;6752;52.612;13.630;2023-06-14T08:51:59;101221.13;;;21.58;63.72
13367;BME280;6752;52.612;13.630;2023-06-14T08:57:02;101220.39;;;22.40;63.40
13367;BME280;6752;52.612;13.630;2023-06-14T09:02:04;101218.34;;;22.58;62.77
13367;BME280;6752;52.612;13.630;2023-06-14T09:07:06;101229.58;;;22.60;60.50
13367;BME280;6752;52.612;13.630;2023-06-14T09:12:10;101248.52;;;22.31;62.36
13367;BME280;6752;52.612;13.630;2023-06-14T09:17:12;101251.85;;;21.85;60.32
13367;BME280;6752;52.612;13.630;2023-06-14T09:22:13;101240.76;;;22.47;60.54
13367;BME280;6752;52.612;13.630;2023-06-14T09:27:15;101239.88;;;22.35;58.43
13367;BME280;6752;52.612;13.630;2023-06-14T09:32:18;101237.70;;;22.21;59.60
13367;BME280;6752;52.612;13.630;2023-06-14T09:37:30;101230.20;;;22.47;59.03
13367;BME280;6752;52.612;13.630;2023-06-14T09:42:28;101243.96;;;22.20;60.86
13367;BME280;6752;52.612;13.630;2023-06-14T09:47:31;101244.44;;;21.45;60.14
13367;BME280;6752;52.612;13.630;2023-06-14T09:52:33;101244.59;;;21.54;61.89
13367;BME280;6752;52.612;13.630;2023-06-14T09:57:36;101246.27;;;21.93;60.07
13367;BME280;6752;52.612;13.630;2023-06-14T10:02:38;101240.16;;;21.93;61.42
13367;BME280;6752;52.612;13.630;2023-06-14T10:07:42;101241.38;;;21.99;59.58
13367;BME280;6752;52.612;13.630;2023-06-14T10:12:43;101235.74;;;22.30;59.40
13367;BME280;6752;52.612;13.630;2023-06-14T10:17:56;101235.09;;;22.65;60.30
13367;BME280;6752;52.612;13.630;2023-06-14T10:22:58;101237.14;;;22.22;58.71
13367;BME280;6752;52.612;13.630;2023-06-14T10:33:21;101219.57;;;22.61;59.23
13367;BME280;6752;52.612;13.630;2023-06-14T10:38:29;101201.71;;;23.09;56.83
13367;BME280;6752;52.612;13.630;2023-06-14T10:43:25;101202.87;;;23.18;54.44
13367;BME280;6752;52.612;13.630;2023-06-14T10:48:31;101196.67;;;23.43;55.00
13367;BME280;6752;52.612;13.630;2023-06-14T10:53:42;101197.86;;;23.75;54.55
13367;BME280;6752;52.612;13.630;2023-06-14T10:58:45;101190.71;;;24.33;52.94
13367;BME280;6752;52.612;13.630;2023-06-14T11:03:53;101180.36;;;24.99;51.19
13367;BME280;6752;52.612;13.630;2023-06-14T11:09:20;101177.17;;;25.29;51.90
13367;BME280;6752;52.612;13.630;2023-06-14T11:14:19;101171.56;;;24.73;50.94
13367;BME280;6752;52.612;13.630;2023-06-14T11:19:21;101155.31;;;24.87;48.51
13367;BME280;6752;52.612;13.630;2023-06-14T11:24:23;101162.16;;;24.69;49.11
13367;BME280;6752;52.612;13.630;2023-06-14T11:29:26;101153.00;;;25.68;49.15
13367;BME280;6752;52.612;13.630;2023-06-14T11:34:28;101131.11;;;25.38;46.74
13367;BME280;6752;52.612;13.630;2023-06-14T11:39:30;101129.44;;;27.45;44.96
13367;BME280;6752;52.612;13.630;2023-06-14T11:44:33;101119.52;;;27.78;44.52
13367;BME280;6752;52.612;13.630;2023-06-14T11:49:39;101119.64;;;28.06;44.03
13367;BME280;6752;52.612;13.630;2023-06-14T11:54:38;101109.42;;;27.97;42.96
13367;BME280;6752;52.612;13.630;2023-06-14T11:59:40;101106.41;;;27.56;43.52
13367;BME280;6752;52.612;13.630;2023-06-14T12:04:43;101088.98;;;28.70;40.07
13367;BME280;6752;52.612;13.630;2023-06-14T12:14:56;101069.47;;;28.16;41.35
13367;BME280;6752;52.612;13.630;2023-06-14T12:19:58;101062.72;;;28.30;40.86
13367;BME280;6752;52.612;13.630;2023-06-14T12:25:01;101052.69;;;28.69;41.46
13367;BME280;6752;52.612;13.630;2023-06-14T12:30:03;101059.44;;;28.72;40.05
13367;BME280;6752;52.612;13.630;2023-06-14T12:35:05;101051.81;;;29.09;40.93
13367;BME280;6752;52.612;13.630;2023-06-14T12:40:08;101048.86;;;28.33;42.02
13367;BME280;6752;52.612;13.630;2023-06-14T12:45:10;101029.03;;;28.64;38.39
13367;BME280;6752;52.612;13.630;2023-06-14T12:50:13;101036.68;;;28.70;39.13
13367;BME280;6752;52.612;13.630;2023-06-14T12:55:15;101026.03;;;28.41;37.99
13367;BME280;6752;52.612;13.630;2023-06-14T13:00:17;101028.16;;;27.84;38.36
13367;BME280;6752;52.612;13.630;2023-06-14T13:05:20;101032.83;;;27.40;38.95
13367;BME280;6752;52.612;13.630;2023-06-14T13:10:22;101022.32;;;28.71;37.81
13367;BME280;6752;52.612;13.630;2023-06-14T13:15:25;101022.25;;;27.61;38.65
13367;BME280;6752;52.612;13.630;2023-06-14T13:20:27;101009.28;;;27.87;36.83
13367;BME280;6752;52.612;13.630;2023-06-14T13:25:29;101016.53;;;28.10;38.71
13367;BME280;6752;52.612;13.630;2023-06-14T13:30:32;101008.85;;;29.32;37.23
13367;BME280;6752;52.612;13.630;2023-06-14T13:35:34;100994.91;;;28.49;37.41
13367;BME280;6752;52.612;13.630;2023-06-14T13:40:37;101005.78;;;26.99;38.35
13367;BME280;6752;52.612;13.630;2023-06-14T13:45:39;100999.77;;;27.47;37.93
13367;BME280;6752;52.612;13.630;2023-06-14T13:55:43;101003.79;;;25.54;39.11
13367;BME280;6752;52.612;13.630;2023-06-14T14:00:45;101011.27;;;25.31;39.45
13367;BME280;6752;52.612;13.630;2023-06-14T14:05:48;101014.23;;;25.23;39.88
13367;BME280;6752;52.612;13.630;2023-06-14T14:10:50;101018.35;;;25.05;40.28
13367;BME280;6752;52.612;13.630;2023-06-14T14:15:52;101013.11;;;25.49;41.16
13367;BME280;6752;52.612;13.630;2023-06-14T14:20:55;101016.56;;;25.32;40.91
13367;BME280;6752;52.612;13.630;2023-06-14T14:25:57;101027.39;;;25.41;41.82
13367;BME280;6752;52.612;13.630;2023-06-14T14:31:00;101034.26;;;24.75;43.42
13367;BME280;6752;52.612;13.630;2023-06-14T14:36:02;101033.33;;;24.72;44.06
13367;BME280;6752;52.612;13.630;2023-06-14T14:41:04;101031.18;;;24.09;45.23
13367;BME280;6752;52.612;13.630;2023-06-14T14:46:07;101037.95;;;24.12;46.30
13367;BME280;6752;52.612;13.630;2023-06-14T14:51:09;101038.47;;;24.95;46.53
13367;BME280;6752;52.612;13.630;2023-06-14T14:56:12;101033.13;;;26.04;43.98
13367;BME280;6752;52.612;13.630;2023-06-14T15:01:14;101021.33;;;24.88;43.91
13367;BME280;6752;52.612;13.630;2023-06-14T15:06:16;101029.46;;;24.03;45.08
13367;BME280;6752;52.612;13.630;2023-06-14T15:11:19;101047.41;;;23.76;46.20
13367;BME280;6752;52.612;13.630;2023-06-14T15:16:21;101042.58;;;23.63;46.54
13367;BME280;6752;52.612;13.630;2023-06-14T15:21:23;101048.34;;;23.35;47.33
13367;BME280;6752;52.612;13.630;2023-06-14T15:26:26;101044.77;;;23.08;47.95
13367;BME280;6752;52.612;13.630;2023-06-14T15:31:28;101044.81;;;22.91;48.31
13367;BME280;6752;52.612;13.630;2023-06-14T15:36:31;101055.33;;;23.09;48.06
13367;BME280;6752;52.612;13.630;2023-06-14T15:41:33;101060.63;;;22.79;49.21
13367;BME280;6752;52.612;13.630;2023-06-14T15:46:35;101064.52;;;22.46;49.39
13367;BME280;6752;52.612;13.630;2023-06-14T15:51:38;101055.12;;;22.59;49.76
13367;BME280;6752;52.612;13.630;2023-06-14T15:56:40;101053.73;;;22.42;49.94
13367;BME280;6752;52.612;13.630;2023-06-14T16:01:43;101051.09;;;22.42;49.74
13367;BME280;6752;52.612;13.630;2023-06-14T16:06:45;101044.74;;;22.24;49.47
13367;BME280;6752;52.612;13.630;2023-06-14T16:11:47;101049.45;;;22.26;49.56
13367;BME280;6752;52.612;13.630;2023-06-14T16:16:50;101041.91;;;22.12;50.22
13367;BME280;6752;52.612;13.630;2023-06-14T16:21:52;101049.73;;;21.97;50.78
13367;BME280;6752;52.612;13.630;2023-06-14T16:26:54;101051.95;;;21.76;51.95
13367;BME280;6752;52.612;13.630;2023-06-14T16:31:57;101060.65;;;21.62;54.64
13367;BME280;6752;52.612;13.630;2023-06-14T16:36:59;101058.16;;;21.25;54.54
13367;BME280;6752;52.612;13.630;2023-06-14T16:42:01;101062.49;;;21.02;54.95
13367;BME280;6752;52.612;13.630;2023-06-14T16:47:03;101050.98;;;21.04;55.18
13367;BME280;6752;52.612;13.630;2023-06-14T16:52:05;101054.45;;;21.03;55.99
13367;BME280;6752;52.612;13.630;2023-06-14T16:57:07;101058.13;;;20.75;55.94
13367;BME280;6752;52.612;13.630;2023-06-14T17:02:10;101053.14;;;20.75;56.21
13367;BME280;6752;52.612;13.630;2023-06-14T17:07:12;101061.48;;;20.59;56.99
13367;BME280;6752;52.612;13.630;2023-06-14T17:12:14;101059.68;;;20.62;56.64
13367;BME280;6752;52.612;13.630;2023-06-14T17:17:17;101062.84;;;20.39;57.76
13367;BME280;6752;52.612;13.630;2023-06-14T17:22:19;101064.11;;;20.42;57.91
13367;BME280;6752;52.612;13.630;2023-06-14T17:27:22;101065.91;;;20.43;56.59
13367;BME280;6752;52.612;13.630;2023-06-14T17:32:24;101071.95;;;20.24;59.18
13367;BME280;6752;52.612;13.630;2023-06-14T17:37:26;101074.17;;;20.17;58.59
13367;BME280;6752;52.612;13.630;2023-06-14T17:42:28;101076.53;;;20.22;58.98
13367;BME280;6752;52.612;13.630;2023-06-14T17:47:30;101079.56;;;20.26;59.16
13367;BME280;6752;52.612;13.630;2023-06-14T17:52:32;101078.05;;;20.21;59.09
13367;BME280;6752;52.612;13.630;2023-06-14T17:57:34;101080.27;;;20.24;60.17
13367;BME280;6752;52.612;13.630;2023-06-14T18:02:37;101079.98;;;20.21;59.76
13367;BME280;6752;52.612;13.630;2023-06-14T18:07:39;101083.55;;;19.91;61.05
13367;BME280;6752;52.612;13.630;2023-06-14T18:12:42;101085.48;;;20.11;60.89
13367;BME280;6752;52.612;13.630;2023-06-14T18:17:44;101090.05;;;19.93;61.95
13367;BME280;6752;52.612;13.630;2023-06-14T18:22:46;101085.83;;;19.68;62.52
13367;BME280;6752;52.612;13.630;2023-06-14T18:27:48;101086.39;;;19.72;61.24
13367;BME280;6752;52.612;13.630;2023-06-14T18:32:50;101082.53;;;19.78;60.72
13367;BME280;6752;52.612;13.630;2023-06-14T18:37:52;101086.10;;;19.69;61.96
13367;BME280;6752;52.612;13.630;2023-06-14T18:42:55;101079.70;;;19.63;61.84
13367;BME280;6752;52.612;13.630;2023-06-14T18:47:57;101088.11;;;19.55;62.90
13367;BME280;6752;52.612;13.630;2023-06-14T18:53:00;101087.20;;;19.68;62.28
13367;BME280;6752;52.612;13.630;2023-06-14T18:58:02;101090.87;;;19.31;65.69
13367;BME280;6752;52.612;13.630;2023-06-14T19:03:04;101089.11;;;19.12;67.61
13367;BME280;6752;52.612;13.630;2023-06-14T19:08:07;101084.86;;;19.42;65.46
13367;BME280;6752;52.612;13.630;2023-06-14T19:13:09;101087.66;;;19.49;64.37
13367;BME280;6752;52.612;13.630;2023-06-14T19:18:12;101086.53;;;19.45;64.12
13367;BME280;6752;52.612;13.630;2023-06-14T19:23:14;101091.50;;;19.41;64.12
13367;BME280;6752;52.612;13.630;2023-06-14T19:28:16;101094.06;;;19.34;63.53
13367;BME280;6752;52.612;13.630;2023-06-14T19:33:19;101095.58;;;19.30;66.12
13367;BME280;6752;52.612;13.630;2023-06-14T19:38:21;101099.96;;;19.21;67.90
13367;BME280;6752;52.612;13.630;2023-06-14T19:43:23;101108.73;;;19.11;67.57
13367;BME280;6752;52.612;13.630;2023-06-14T19:48:26;101102.52;;;18.91;69.29
13367;BME280;6752;52.612;13.630;2023-06-14T19:53:28;101105.84;;;18.69;69.51
13367;BME280;6752;52.612;13.630;2023-06-14T19:58:31;101115.98;;;18.48;70.34
13367;BME280;6752;52.612;13.630;2023-06-14T20:03:33;101115.30;;;18.49;69.06
13367;BME280;6752;52.612;13.630;2023-06-14T20:08:35;101114.86;;;18.46;68.79
13367;BME280;6752;52.612;13.630;2023-06-14T20:13:38;101122.44;;;18.31;69.60
13367;BME280;6752;52.612;13.630;2023-06-14T20:18:40;101119.91;;;18.25;69.79
13367;BME280;6752;52.612;13.630;2023-06-14T20:23:43;101122.69;;;18.27;69.74
13367;BME280;6752;52.612;13.630;2023-06-14T20:28:45;101122.98;;;18.17;70.46
13367;BME280;6752;52.612;13.630;2023-06-14T20:33:47;101121.36;;;18.21;70.82
13367;BME280;6752;52.612;13.630;2023-06-14T20:38:50;101120.41;;;18.35;68.59
13367;BME280;6752;52.612;13.630;2023-06-14T20:43:52;101121.02;;;18.26;70.12
13367;BME280;6752;52.612;13.630;2023-06-14T20:48:57;101118.97;;;18.17;70.62
13367;BME280;6752;52.612;13.630;2023-06-14T20:53:59;101114.66;;;18.12;71.29
13367;BME280;6752;52.612;13.630;2023-06-14T20:59:02;101129.88;;;18.01;72.32
13367;BME280;6752;52.612;13.630;2023-06-14T21:04:04;101125.54;;;18.10;71.44
13367;BME280;6752;52.612;13.630;2023-06-14T21:09:06;101118.23;;;18.10;70.88
13367;BME280;6752;52.612;13.630;2023-06-14T21:14:09;101129.77;;;18.05;72.19
13367;BME280;6752;52.612;13.630;2023-06-14T21:19:11;101126.45;;;18.05;71.70
13367;BME280;6752;52.612;13.630;2023-06-14T21:24:13;101126.98;;;17.91;73.41
13367;BME280;6752;52.612;13.630;2023-06-14T21:29:16;101124.53;;;18.06;70.28
13367;BME280;6752;52.612;13.630;2023-06-14T21:34:18;101116.08;;;18.01;71.73
13367;BME280;6752;52.612;13.630;2023-06-14T21:39:20;101114.33;;;18.06;70.06
13367;BME280;6752;52.612;13.630;2023-06-14T21:44:23;101121.80;;;17.97;72.19
13367;BME280;6752;52.612;13.630;2023-06-14T21:49:26;101115.14;;;17.69;74.54
13367;BME280;6752;52.612;13.630;2023-06-14T21:54:28;101107.06;;;17.51;76.05
13367;BME280;6752;52.612;13.630;2023-06-14T21:59:30;101117.65;;;17.29;77.37
13367;BME280;6752;52.612;13.630;2023-06-14T22:04:32;101114.51;;;17.31;77.40
13367;BME280;6752;52.612;13.630;2023-06-14T22:09:35;101106.34;;;17.28;77.57
13367;BME280;6752;52.612;13.630;2023-06-14T22:14:37;101101.59;;;17.45;76.81
13367;BME280;6752;52.612;13.630;2023-06-14T22:19:40;101103.83;;;17.48;75.27
13367;BME280;6752;52.612;13.630;2023-06-14T22:24:42;101098.20;;;17.38;75.57
13367;BME280;6752;52.612;13.630;2023-06-14T22:29:44;101096.28;;;17.28;76.50
13367;BME280;6752;52.612;13.630;2023-06-14T22:34:47;101096.50;;;17.35;76.79
13367;BME280;6752;52.612;13.630;2023-06-14T22:39:49;101097.44;;;17.32;74.79
13367;BME280;6752;52.612;13.630;2023-06-14T22:44:51;101098.88;;;16.98;76.61
13367;BME280;6752;52.612;13.630;2023-06-14T22:49:54;101094.33;;;16.70;78.52
13367;BME280;6752;52.612;13.630;2023-06-14T22:54:56;101092.52;;;16.79;79.39
13367;BME280;6752;52.612;13.630;2023-06-14T22:59:59;101096.66;;;16.70;77.28
13367;BME280;6752;52.612;13.630;2023-06-14T23:05:01;101093.98;;;16.75;76.21
13367;BME280;6752;52.612;13.630;2023-06-14T23:10:03;101099.98;;;16.64;76.65
13367;BME280;6752;52.612;13.630;2023-06-14T23:15:06;101089.03;;;16.52;76.95
13367;BME280;6752;52.612;13.630;2023-06-14T23:20:08;101088.71;;;16.49;77.39
13367;BME280;6752;52.612;13.630;2023-06-14T23:25:11;101088.50;;;16.44;76.30
13367;BME280;6752;52.612;13.630;2023-06-14T23:30:13;101092.86;;;16.26;77.71
13367;BME280;6752;52.612;13.630;2023-06-14T23:35:15;101090.36;;;16.24;77.56
13367;BME280;6752;52.612;13.630;2023-06-14T23:40:18;101090.56;;;16.29;79.97
13367;BME280;6752;52.612;13.630;2023-06-14T23:45:20;101083.48;;;16.02;83.04
13367;BME280;6752;52.612;13.630;2023-06-14T23:50:23;101083.95;;;16.10;79.20
13367;BME280;6752;52.612;13.630;2023-06-14T23:55:28;101083.73;;;16.00;79.11
